Terminal Aerodrome Forecast
Issued by NWS Burlington, VT

Home | Current Version | Previous Version | Text Only | Print | Product List | Glossary On
Versions: 1 2 3 4 5 6 7 8 9 10 11 12 13 14 15 16 17 18 19 20 21
000
FTUS41 KBTV 122335
TAFBTV
TAF
KBTV 122335Z 1300/1324 34005KT 1 1/2SM -SN BR SCT008 OVC012
      TEMPO 1300/1304 3/4SM -SN BR BKN008
     FM130400 31007KT 2SM -SN BR SCT008 OVC012
     FM130600 33008G14KT 2SM -SHSN BR SCT008 OVC015
     FM131200 30012G20KT 3SM -SHSN BR OVC020
     FM131600 29015G24KT P6SM VCSH OVC025=

USA.gov is the U.S. government's official web portal to all federal, state and local government web resources and services.